»·PEaware :: N612GM KSBP-KCRQ

N612GM :: KSBP-KCRQ

FLIGHT INFORMATION

Flight Status: Arrived
Operator: Privately registered:
United States
More flights under this callsign
Pilot: James S. (18325)
Aircraft: SAAB 340
(SF34)
More flights by this aircraft type
Origin: KSBP San Luis Co Regl
United States
Destination: KCRQ McClellan-Palomar
United States
More flights between these airports :: More routes between these airports
Route: + RZS VTU V208 SXC V208 OCN
File this flight plan on PilotEdge
Remarks:
Altitude:
(Current/Filed)
15,000ft
Speed:
(Current/Filed)
200kts
Departed: 17-May-18 12:07 PM
Arrived: 17-May-18 01:14 PM
Distance/Time
Traveled:
209nm/1:07
Distance/Time
To Go:
Arrived

Flight Plot

Page will automatically refresh every two minutes.

Flight plan parsing failed; only flown route is shown


Map Options




Map Legend


Flown Route
Filed Route
Departure Airport
Arrival Airport
Navaid (VOR, NDB)
Fix

Horizontal Profiles

Position Reports

Time Latitude Longitude Heading Altitude Ground
Speed
17-May-18 11:15 35.238922 -120.639406 180 180ft 0kts
17-May-18 11:16 35.238922 -120.639406 180 180ft 0kts
17-May-18 11:17 35.238922 -120.639406 180 180ft 0kts
17-May-18 11:18 35.238922 -120.639406 180 180ft 0kts
17-May-18 11:19 35.238922 -120.639406 180 180ft 0kts
17-May-18 11:20 35.238922 -120.639406 180 180ft 0kts
17-May-18 11:21 35.238922 -120.639406 180 180ft 0kts
17-May-18 11:22 35.238922 -120.639406 180 180ft 0kts
17-May-18 11:23 35.238922 -120.639406 180 180ft 0kts
17-May-18 11:24 35.238922 -120.639406 180 180ft 0kts
17-May-18 11:25 35.238922 -120.639406 180 180ft 0kts
17-May-18 11:26 35.238922 -120.639406 180 180ft 0kts
17-May-18 11:27 35.238922 -120.639406 180 180ft 0kts
17-May-18 11:28 35.238922 -120.639406 180 180ft 0kts
17-May-18 11:29 35.238922 -120.639406 180 180ft 0kts
17-May-18 11:30 35.238922 -120.639406 180 180ft 0kts
17-May-18 11:31 35.238922 -120.639406 180 180ft 0kts
17-May-18 11:32 35.238922 -120.639406 180 180ft 0kts
17-May-18 11:33 35.238922 -120.639406 180 180ft 0kts
17-May-18 11:34 35.238922 -120.639406 180 180ft 0kts
17-May-18 11:35 35.238922 -120.639406 180 180ft 0kts
17-May-18 11:36 35.238922 -120.639406 180 180ft 0kts
17-May-18 11:37 35.238922 -120.639406 180 180ft 0kts
17-May-18 11:38 35.238922 -120.639406 180 180ft 0kts
17-May-18 11:39 35.238922 -120.639406 180 180ft 0kts
17-May-18 11:40 35.238922 -120.639406 180 180ft 0kts
17-May-18 11:41 35.238922 -120.639406 180 180ft 0kts
17-May-18 11:42 35.238922 -120.639406 180 180ft 0kts
17-May-18 11:43 35.238922 -120.639406 180 180ft 0kts
17-May-18 11:44 35.238922 -120.639406 180 180ft 0kts
17-May-18 11:45 35.238922 -120.639406 180 180ft 0kts
17-May-18 11:46 35.238922 -120.639406 180 180ft 0kts
17-May-18 11:47 35.238922 -120.639406 180 180ft 0kts
17-May-18 11:48 35.238922 -120.639406 180 180ft 0kts
17-May-18 11:49 35.238922 -120.639406 180 180ft 0kts
17-May-18 11:50 35.238922 -120.639406 180 180ft 0kts
17-May-18 11:51 35.238922 -120.639406 180 180ft 0kts
17-May-18 11:52 35.238922 -120.639406 180 180ft 0kts
17-May-18 11:53 35.238922 -120.639406 180 180ft 0kts
17-May-18 11:54 35.238922 -120.639406 180 180ft 0kts
17-May-18 11:55 35.238922 -120.639406 180 180ft 0kts
17-May-18 11:56 35.238922 -120.639406 180 180ft 0kts
17-May-18 11:57 35.238922 -120.639406 180 180ft 0kts
17-May-18 11:58 35.238922 -120.639406 180 180ft 0kts
17-May-18 11:59 35.238921 -120.639406 180 180ft 0kts
17-May-18 12:00 35.238921 -120.639406 180 180ft 0kts
17-May-18 12:01 35.238454 -120.639456 196 180ft 4kts
17-May-18 12:02 35.236913 -120.638106 124 180ft 14kts
17-May-18 12:03 35.234584 -120.634055 124 180ft 10kts
17-May-18 12:04 35.233274 -120.632148 207 180ft 2kts
17-May-18 12:05 35.233253 -120.632165 214 180ft 0kts
17-May-18 12:06 35.232815 -120.632882 301 180ft 8kts
17-May-18 12:07 35.246584 -120.656499 301 955ft 129kts
17-May-18 12:08 35.266059 -120.694022 302 3327ft 136kts
17-May-18 12:09 35.286439 -120.733845 302 5533ft 141kts
17-May-18 12:10 35.307251 -120.775150 302 7411ft 146kts
17-May-18 12:11 35.282004 -120.803370 148 8018ft 227kts
17-May-18 12:12 35.259281 -120.733466 114 8000ft 227kts
17-May-18 12:13 35.222204 -120.671007 130 8124ft 222kts
17-May-18 12:14 35.180862 -120.616302 132 9643ft 221kts
17-May-18 12:15 35.139329 -120.563133 133 11332ft 215kts
17-May-18 12:16 35.097512 -120.509906 133 12731ft 220kts
17-May-18 12:17 35.054653 -120.455479 133 13988ft 226kts
17-May-18 12:18 35.010358 -120.399307 133 15000ft 238kts
17-May-18 12:19 34.961134 -120.337035 134 15024ft 271kts
17-May-18 12:20 34.908158 -120.270147 135 15020ft 283kts
17-May-18 12:21 34.853822 -120.201688 135 15015ft 286kts
17-May-18 12:22 34.798616 -120.132265 135 15011ft 287kts
17-May-18 12:23 34.742987 -120.062441 135 15009ft 288kts
17-May-18 12:24 34.687162 -119.992514 135 15008ft 288kts
17-May-18 12:25 34.631681 -119.923162 135 15006ft 288kts
17-May-18 12:26 34.575861 -119.853528 135 15004ft 288kts
17-May-18 12:27 34.520334 -119.784400 135 15001ft 288kts
17-May-18 12:28 34.474001 -119.705258 124 15001ft 289kts
17-May-18 12:29 34.429666 -119.623702 124 15001ft 289kts
17-May-18 12:30 34.385489 -119.542517 124 15001ft 289kts
17-May-18 12:31 34.341059 -119.461045 124 15002ft 289kts
17-May-18 12:32 34.296898 -119.380251 124 15002ft 290kts
17-May-18 12:33 34.255047 -119.303850 124 14999ft 289kts
17-May-18 12:34 34.210575 -119.222844 124 15000ft 289kts
17-May-18 12:35 34.166150 -119.142103 124 15004ft 289kts
17-May-18 12:36 34.121276 -119.062737 139 14978ft 288kts
17-May-18 12:37 34.046373 -119.042871 177 15018ft 279kts
17-May-18 12:38 33.969362 -119.034225 178 15018ft 279kts
17-May-18 12:39 33.892838 -119.026165 178 15017ft 279kts
17-May-18 12:40 33.815838 -119.018112 178 15017ft 279kts
17-May-18 12:41 33.754916 -118.962568 132 15015ft 289kts
17-May-18 12:42 33.703136 -118.888851 132 15014ft 290kts
17-May-18 12:43 33.651725 -118.815003 132 15016ft 291kts
17-May-18 12:44 33.600031 -118.740875 132 15019ft 291kts
17-May-18 12:45 33.548208 -118.666688 132 15019ft 291kts
17-May-18 12:46 33.496330 -118.592569 132 15020ft 292kts
17-May-18 12:47 33.444334 -118.518434 132 15020ft 292kts
17-May-18 12:48 33.392438 -118.444591 132 15021ft 292kts
17-May-18 12:49 33.366818 -118.353989 99 15021ft 295kts
17-May-18 12:50 33.354735 -118.264032 99 13919ft 284kts
17-May-18 12:51 33.342444 -118.170827 99 12626ft 284kts
17-May-18 12:52 33.330218 -118.078649 98 11340ft 282kts
17-May-18 12:53 33.318120 -117.987454 99 10057ft 280kts
17-May-18 12:54 33.305955 -117.896500 100 8770ft 277kts
17-May-18 12:55 33.293919 -117.807204 101 7457ft 264kts
17-May-18 12:56 33.282713 -117.724579 101 6930ft 242kts
17-May-18 12:57 33.272193 -117.647301 101 6423ft 233kts
17-May-18 12:58 33.261910 -117.572155 101 5924ft 229kts
17-May-18 12:59 33.252818 -117.497153 97 5416ft 222kts
17-May-18 13:00 33.247308 -117.426714 97 4997ft 201kts
17-May-18 13:01 33.242529 -117.366470 97 4988ft 173kts
17-May-18 13:02 33.237579 -117.305432 97 5001ft 215kts
17-May-18 13:03 33.231974 -117.235597 97 4994ft 208kts
17-May-18 13:04 33.226858 -117.167638 97 4997ft 206kts
17-May-18 13:05 33.222182 -117.100555 97 5000ft 205kts
17-May-18 13:06 33.218453 -117.033201 97 4999ft 203kts
17-May-18 13:07 33.185890 -117.011163 216 4134ft 180kts
17-May-18 13:08 33.152523 -117.049358 263 3487ft 153kts
17-May-18 13:09 33.158068 -117.095409 253 3406ft 145kts
17-May-18 13:10 33.149944 -117.145569 254 2571ft 163kts
17-May-18 13:11 33.142417 -117.192477 253 1735ft 116kts
17-May-18 13:12 33.136920 -117.228052 252 1171ft 108kts
17-May-18 13:13 33.131082 -117.263089 251 479ft 107kts
17-May-18 13:14 33.127471 -117.284267 268 299ft 12kts
17-May-18 13:15 33.126637 -117.287791 152 299ft 4kts
17-May-18 13:16 33.126350 -117.287342 113 300ft 0kts
17-May-18 13:17 33.126216 -117.285879 99 299ft 11kts
17-May-18 13:18 33.126194 -117.285321 13 299ft 0kts

Navigation Log

Ident Type
Flight plan parsing failed, navigation log unavailable